Strona główna
METAR-TAF:

METAR-TAF

Lotnisko :

Port lotniczy Bangkok-Suvarnabhumi

Bangkok-Suvarnabhumi, Tajlandia

Szerokość geograficzna: 13-40-52N, Długość geograficzna: 100-44-50E, wysokość: 2 m

Aktualna obserwacja pogody

Raport powstał 20 minut temu, godzina 12:00 UTC
Wiatr 9 kt od południe
Temperatura 29°C
Wilgotność 66%
Ciśnienie 1004 hPa
Widzialność: 8000 m
Mało chmury na wysokości 2000 ft

METAR: VTBS 261200Z 19009KT 8000 FEW020 29/22 Q1004 NOSIG

czas: 19:20 (12:20 UTC)

Prognoza

Raport powstał 1 godzina i 20 minut temu, godzina 11:00 UTC
Prognoza ważna od 26 godzina 12 UTC do 27 godzina 18 UTC
Wiatr 8 kt od południowo-południowy zachód
Widzialność: 9000 m
Mało chmury na wysokości 3000 ft
Stopniowe zmiany
od 26 godzina 20 UTC do 26 godzina 22 UTC
Wiatr 5 kt od wschodnio-południowy wschód
Stopniowe zmiany
od 27 godzina 02 UTC do 27 godzina 04 UTC
Wiatr 8 kt od południowo-południowy zachód

TAF: VTBS 261100Z 2612/2718 20008KT 9000 FEW030 BECMG 2620/2622 12005KT BECMG 2702/2704 20008KT

Obserwacja i prognoza pogody dla ponad 4000 lotnisk (raport METAR i TAF).

Dostępne stacje oznaczono żółtymi i czerwonymi punktami na mapie.

Najedź kursorem aby zobaczyć nazwę stacji.

Kliknij aby zobaczyć obserwacje i prognozy pogody.

Aby zmienić mapę: kliknij na zielony przycisk z czarnym krzyżykiem, aby powiększyć; na zielony przycisk z myślnikiem, aby pomniejszyć; na zielone strzałki, aby przejść do map sąsiednich.


METAR-TAF: